sensor_id;sensor_type;location;lat;lon;timestamp;temperature;humidity
22192;DHT22;11261;52.456;10.850;2023-05-17T00:01:00;8.80;99.90
22192;DHT22;11261;52.456;10.850;2023-05-17T00:03:28;8.60;99.90
22192;DHT22;11261;52.456;10.850;2023-05-17T00:05:56;8.60;99.90
22192;DHT22;11261;52.456;10.850;2023-05-17T00:08:28;8.70;99.90
22192;DHT22;11261;52.456;10.850;2023-05-17T00:10:57;8.70;99.90
22192;DHT22;11261;52.456;10.850;2023-05-17T00:13:25;8.60;99.90
22192;DHT22;11261;52.456;10.850;2023-05-17T00:15:54;8.70;99.90
22192;DHT22;11261;52.456;10.850;2023-05-17T00:18:22;8.60;99.90
22192;DHT22;11261;52.456;10.850;2023-05-17T00:20:51;8.70;99.90
22192;DHT22;11261;52.456;10.850;2023-05-17T00:23:19;8.60;99.90
22192;DHT22;11261;52.456;10.850;2023-05-17T00:25:49;8.70;99.90
22192;DHT22;11261;52.456;10.850;2023-05-17T00:28:17;8.60;99.90
22192;DHT22;11261;52.456;10.850;2023-05-17T00:30:46;8.60;99.90
22192;DHT22;11261;52.456;10.850;2023-05-17T00:33:14;8.60;99.90
22192;DHT22;11261;52.456;10.850;2023-05-17T00:35:42;8.70;99.90
22192;DHT22;11261;52.456;10.850;2023-05-17T00:38:10;8.70;99.90
22192;DHT22;11261;52.456;10.850;2023-05-17T00:40:38;8.70;99.90
22192;DHT22;11261;52.456;10.850;2023-05-17T00:43:08;8.60;99.90
22192;DHT22;11261;52.456;10.850;2023-05-17T00:45:37;8.60;99.90
22192;DHT22;11261;52.456;10.850;2023-05-17T00:48:05;8.60;99.90
22192;DHT22;11261;52.456;10.850;2023-05-17T00:50:34;8.60;99.90
22192;DHT22;11261;52.456;10.850;2023-05-17T00:53:02;8.70;99.90
22192;DHT22;11261;52.456;10.850;2023-05-17T00:55:31;8.60;99.90
22192;DHT22;11261;52.456;10.850;2023-05-17T00:57:59;8.60;99.90
22192;DHT22;11261;52.456;10.850;2023-05-17T01:00:29;8.60;99.90
22192;DHT22;11261;52.456;10.850;2023-05-17T01:02:59;8.60;99.90
22192;DHT22;11261;52.456;10.850;2023-05-17T01:05:28;8.60;99.90
22192;DHT22;11261;52.456;10.850;2023-05-17T01:07:56;8.50;99.90
22192;DHT22;11261;52.456;10.850;2023-05-17T01:10:34;8.50;99.90
22192;DHT22;11261;52.456;10.850;2023-05-17T01:13:08;8.60;99.90
22192;DHT22;11261;52.456;10.850;2023-05-17T01:15:43;8.50;99.90
22192;DHT22;11261;52.456;10.850;2023-05-17T01:18:19;8.50;99.90
22192;DHT22;11261;52.456;10.850;2023-05-17T01:20:50;8.40;99.90
22192;DHT22;11261;52.456;10.850;2023-05-17T01:23:30;8.30;99.90
22192;DHT22;11261;52.456;10.850;2023-05-17T01:26:06;8.30;99.90
22192;DHT22;11261;52.456;10.850;2023-05-17T01:28:37;8.20;99.90
22192;DHT22;11261;52.456;10.850;2023-05-17T01:31:07;8.30;99.90
22192;DHT22;11261;52.456;10.850;2023-05-17T01:33:35;8.30;99.90
22192;DHT22;11261;52.456;10.850;2023-05-17T01:36:05;8.20;99.90
22192;DHT22;11261;52.456;10.850;2023-05-17T01:38:34;8.20;99.90
22192;DHT22;11261;52.456;10.850;2023-05-17T01:41:06;8.20;99.90
22192;DHT22;11261;52.456;10.850;2023-05-17T01:43:46;8.40;99.90
22192;DHT22;11261;52.456;10.850;2023-05-17T01:46:23;8.30;99.90
22192;DHT22;11261;52.456;10.850;2023-05-17T01:49:02;8.30;99.90
22192;DHT22;11261;52.456;10.850;2023-05-17T01:51:36;8.20;99.90
22192;DHT22;11261;52.456;10.850;2023-05-17T01:54:10;8.30;99.90
22192;DHT22;11261;52.456;10.850;2023-05-17T01:56:42;8.30;99.90
22192;DHT22;11261;52.456;10.850;2023-05-17T01:59:14;8.20;99.90
22192;DHT22;11261;52.456;10.850;2023-05-17T02:01:45;8.10;99.90
22192;DHT22;11261;52.456;10.850;2023-05-17T02:04:14;8.10;99.90
22192;DHT22;11261;52.456;10.850;2023-05-17T02:06:42;8.10;99.90
22192;DHT22;11261;52.456;10.850;2023-05-17T02:09:11;8.10;99.90
22192;DHT22;11261;52.456;10.850;2023-05-17T02:11:39;8.00;99.90
22192;DHT22;11261;52.456;10.850;2023-05-17T02:14:07;8.10;99.90
22192;DHT22;11261;52.456;10.850;2023-05-17T02:16:38;8.10;99.90
22192;DHT22;11261;52.456;10.850;2023-05-17T02:19:06;8.10;99.90
22192;DHT22;11261;52.456;10.850;2023-05-17T02:21:35;8.10;99.90
22192;DHT22;11261;52.456;10.850;2023-05-17T02:24:04;8.10;99.90
22192;DHT22;11261;52.456;10.850;2023-05-17T02:26:32;8.10;99.90
22192;DHT22;11261;52.456;10.850;2023-05-17T02:29:00;8.10;99.90
22192;DHT22;11261;52.456;10.850;2023-05-17T02:31:29;8.10;99.90
22192;DHT22;11261;52.456;10.850;2023-05-17T02:33:58;8.20;99.90
22192;DHT22;11261;52.456;10.850;2023-05-17T02:36:27;8.20;99.90
22192;DHT22;11261;52.456;10.850;2023-05-17T02:38:55;8.20;99.90
22192;DHT22;11261;52.456;10.850;2023-05-17T02:41:24;8.20;99.90
22192;DHT22;11261;52.456;10.850;2023-05-17T02:43:52;8.30;99.90
22192;DHT22;11261;52.456;10.850;2023-05-17T02:46:21;8.20;99.90
22192;DHT22;11261;52.456;10.850;2023-05-17T02:48:50;8.30;99.90
22192;DHT22;11261;52.456;10.850;2023-05-17T02:51:19;8.30;99.90
22192;DHT22;11261;52.456;10.850;2023-05-17T02:53:48;8.20;99.90
22192;DHT22;11261;52.456;10.850;2023-05-17T02:56:16;8.20;99.90
22192;DHT22;11261;52.456;10.850;2023-05-17T02:58:44;8.20;99.90
22192;DHT22;11261;52.456;10.850;2023-05-17T03:01:12;8.10;99.90
22192;DHT22;11261;52.456;10.850;2023-05-17T03:03:40;8.00;99.90
22192;DHT22;11261;52.456;10.850;2023-05-17T03:06:09;8.10;99.90
22192;DHT22;11261;52.456;10.850;2023-05-17T03:08:38;8.00;99.90
22192;DHT22;11261;52.456;10.850;2023-05-17T03:11:07;7.90;99.90
22192;DHT22;11261;52.456;10.850;2023-05-17T03:13:35;7.90;99.90
22192;DHT22;11261;52.456;10.850;2023-05-17T03:16:04;7.90;99.90
22192;DHT22;11261;52.456;10.850;2023-05-17T03:18:32;7.90;99.90
22192;DHT22;11261;52.456;10.850;2023-05-17T03:21:00;7.90;99.90
22192;DHT22;11261;52.456;10.850;2023-05-17T03:23:29;7.90;99.90
22192;DHT22;11261;52.456;10.850;2023-05-17T03:25:59;8.00;99.90
22192;DHT22;11261;52.456;10.850;2023-05-17T03:28:27;7.90;99.90
22192;DHT22;11261;52.456;10.850;2023-05-17T03:30:55;7.80;99.90
22192;DHT22;11261;52.456;10.850;2023-05-17T03:33:23;7.80;99.90
22192;DHT22;11261;52.456;10.850;2023-05-17T03:35:52;7.70;99.90
22192;DHT22;11261;52.456;10.850;2023-05-17T03:38:21;7.70;99.90
22192;DHT22;11261;52.456;10.850;2023-05-17T03:40:50;7.90;99.90
22192;DHT22;11261;52.456;10.850;2023-05-17T03:43:20;7.80;99.90
22192;DHT22;11261;52.456;10.850;2023-05-17T03:45:48;7.80;99.90
22192;DHT22;11261;52.456;10.850;2023-05-17T03:48:16;7.80;99.90
22192;DHT22;11261;52.456;10.850;2023-05-17T03:50:45;7.80;99.90
22192;DHT22;11261;52.456;10.850;2023-05-17T03:53:13;7.90;99.90
22192;DHT22;11261;52.456;10.850;2023-05-17T03:55:41;8.00;99.90
22192;DHT22;11261;52.456;10.850;2023-05-17T03:58:09;7.80;99.90
22192;DHT22;11261;52.456;10.850;2023-05-17T04:00:39;7.80;99.90
22192;DHT22;11261;52.456;10.850;2023-05-17T04:03:07;7.80;99.90
22192;DHT22;11261;52.456;10.850;2023-05-17T04:05:35;7.80;99.90
22192;DHT22;11261;52.456;10.850;2023-05-17T04:08:04;7.80;99.90
22192;DHT22;11261;52.456;10.850;2023-05-17T04:10:32;7.90;99.90
22192;DHT22;11261;52.456;10.850;2023-05-17T04:13:00;8.10;99.90
22192;DHT22;11261;52.456;10.850;2023-05-17T04:15:29;8.00;99.90
22192;DHT22;11261;52.456;10.850;2023-05-17T04:17:59;8.10;99.90
22192;DHT22;11261;52.456;10.850;2023-05-17T04:20:27;8.10;99.90
22192;DHT22;11261;52.456;10.850;2023-05-17T04:22:56;8.10;99.90
22192;DHT22;11261;52.456;10.850;2023-05-17T04:25:24;8.10;99.90
22192;DHT22;11261;52.456;10.850;2023-05-17T04:27:53;8.20;99.90
22192;DHT22;11261;52.456;10.850;2023-05-17T04:30:22;8.10;99.90
22192;DHT22;11261;52.456;10.850;2023-05-17T04:32:50;8.20;99.90
22192;DHT22;11261;52.456;10.850;2023-05-17T04:35:20;8.20;99.90
22192;DHT22;11261;52.456;10.850;2023-05-17T04:37:49;8.20;99.90
22192;DHT22;11261;52.456;10.850;2023-05-17T04:40:18;8.20;99.90
22192;DHT22;11261;52.456;10.850;2023-05-17T04:42:47;8.30;99.90
22192;DHT22;11261;52.456;10.850;2023-05-17T04:45:15;8.40;99.90
22192;DHT22;11261;52.456;10.850;2023-05-17T04:47:43;8.50;99.90
22192;DHT22;11261;52.456;10.850;2023-05-17T04:50:12;8.60;99.90
22192;DHT22;11261;52.456;10.850;2023-05-17T04:52:41;8.70;99.90
22192;DHT22;11261;52.456;10.850;2023-05-17T04:55:10;8.60;99.90
22192;DHT22;11261;52.456;10.850;2023-05-17T04:57:39;8.80;99.90
22192;DHT22;11261;52.456;10.850;2023-05-17T05:00:08;8.90;99.90
22192;DHT22;11261;52.456;10.850;2023-05-17T05:02:37;8.80;99.90
22192;DHT22;11261;52.456;10.850;2023-05-17T05:05:06;8.90;99.90
22192;DHT22;11261;52.456;10.850;2023-05-17T05:07:35;8.90;99.90
22192;DHT22;11261;52.456;10.850;2023-05-17T05:10:08;9.00;99.90
22192;DHT22;11261;52.456;10.850;2023-05-17T05:12:36;9.10;99.90
22192;DHT22;11261;52.456;10.850;2023-05-17T05:15:06;9.10;99.90
22192;DHT22;11261;52.456;10.850;2023-05-17T05:17:34;9.10;99.90
22192;DHT22;11261;52.456;10.850;2023-05-17T05:20:03;9.20;99.90
22192;DHT22;11261;52.456;10.850;2023-05-17T05:22:32;9.70;99.90
22192;DHT22;11261;52.456;10.850;2023-05-17T05:25:00;10.40;99.90
22192;DHT22;11261;52.456;10.850;2023-05-17T05:27:30;10.60;99.90
22192;DHT22;11261;52.456;10.850;2023-05-17T05:29:58;10.70;99.90
22192;DHT22;11261;52.456;10.850;2023-05-17T05:32:27;10.80;99.90
22192;DHT22;11261;52.456;10.850;2023-05-17T05:34:55;11.10;99.90
22192;DHT22;11261;52.456;10.850;2023-05-17T05:37:24;11.50;99.90
22192;DHT22;11261;52.456;10.850;2023-05-17T05:39:52;11.80;99.90
22192;DHT22;11261;52.456;10.850;2023-05-17T05:42:21;12.30;99.90
22192;DHT22;11261;52.456;10.850;2023-05-17T05:44:50;12.60;99.90
22192;DHT22;11261;52.456;10.850;2023-05-17T05:47:19;12.30;99.90
22192;DHT22;11261;52.456;10.850;2023-05-17T05:49:47;11.80;99.90
22192;DHT22;11261;52.456;10.850;2023-05-17T05:52:15;11.80;99.90
22192;DHT22;11261;52.456;10.850;2023-05-17T05:54:44;12.30;99.90
22192;DHT22;11261;52.456;10.850;2023-05-17T05:57:12;13.10;99.90
22192;DHT22;11261;52.456;10.850;2023-05-17T05:59:40;12.80;99.90
22192;DHT22;11261;52.456;10.850;2023-05-17T06:02:10;12.80;99.90
22192;DHT22;11261;52.456;10.850;2023-05-17T06:04:38;12.50;99.90
22192;DHT22;11261;52.456;10.850;2023-05-17T06:07:11;12.20;99.90
22192;DHT22;11261;52.456;10.850;2023-05-17T06:09:40;12.10;99.90
22192;DHT22;11261;52.456;10.850;2023-05-17T06:12:08;11.80;99.90
22192;DHT22;11261;52.456;10.850;2023-05-17T06:14:37;11.80;99.90
22192;DHT22;11261;52.456;10.850;2023-05-17T06:17:05;11.80;99.90
22192;DHT22;11261;52.456;10.850;2023-05-17T06:19:35;12.00;99.90
22192;DHT22;11261;52.456;10.850;2023-05-17T06:22:03;11.90;99.90
22192;DHT22;11261;52.456;10.850;2023-05-17T06:24:32;12.20;99.90
22192;DHT22;11261;52.456;10.850;2023-05-17T06:27:00;12.70;99.90
22192;DHT22;11261;52.456;10.850;2023-05-17T06:29:28;12.60;99.90
22192;DHT22;11261;52.456;10.850;2023-05-17T06:31:56;13.20;99.90
22192;DHT22;11261;52.456;10.850;2023-05-17T06:34:25;13.40;99.90
22192;DHT22;11261;52.456;10.850;2023-05-17T06:36:55;13.10;99.90
22192;DHT22;11261;52.456;10.850;2023-05-17T06:39:23;12.70;99.90
22192;DHT22;11261;52.456;10.850;2023-05-17T06:41:51;12.60;99.90
22192;DHT22;11261;52.456;10.850;2023-05-17T06:44:20;12.50;99.90
22192;DHT22;11261;52.456;10.850;2023-05-17T06:46:48;12.50;99.90
22192;DHT22;11261;52.456;10.850;2023-05-17T06:49:16;12.60;99.90
22192;DHT22;11261;52.456;10.850;2023-05-17T06:51:45;13.00;99.90
22192;DHT22;11261;52.456;10.850;2023-05-17T06:54:16;13.30;99.90
22192;DHT22;11261;52.456;10.850;2023-05-17T06:56:45;13.50;99.90
22192;DHT22;11261;52.456;10.850;2023-05-17T06:59:13;14.00;99.90
22192;DHT22;11261;52.456;10.850;2023-05-17T07:01:42;14.50;99.90
22192;DHT22;11261;52.456;10.850;2023-05-17T07:04:10;14.30;99.90
22192;DHT22;11261;52.456;10.850;2023-05-17T07:06:39;14.40;99.70
22192;DHT22;11261;52.456;10.850;2023-05-17T07:09:07;14.90;99.60
22192;DHT22;11261;52.456;10.850;2023-05-17T07:11:36;14.20;97.90
22192;DHT22;11261;52.456;10.850;2023-05-17T07:14:05;14.40;99.20
22192;DHT22;11261;52.456;10.850;2023-05-17T07:16:33;13.50;97.00
22192;DHT22;11261;52.456;10.850;2023-05-17T07:19:01;13.20;98.20
22192;DHT22;11261;52.456;10.850;2023-05-17T07:21:31;13.60;96.30
22192;DHT22;11261;52.456;10.850;2023-05-17T07:23:59;13.60;97.30
22192;DHT22;11261;52.456;10.850;2023-05-17T07:26:27;13.90;97.90
22192;DHT22;11261;52.456;10.850;2023-05-17T07:28:57;13.60;97.10
22192;DHT22;11261;52.456;10.850;2023-05-17T07:31:25;13.80;96.20
22192;DHT22;11261;52.456;10.850;2023-05-17T07:33:53;13.80;97.60
22192;DHT22;11261;52.456;10.850;2023-05-17T07:36:21;14.10;96.80
22192;DHT22;11261;52.456;10.850;2023-05-17T07:38:49;13.90;97.20
22192;DHT22;11261;52.456;10.850;2023-05-17T07:41:18;13.80;96.50
22192;DHT22;11261;52.456;10.850;2023-05-17T07:43:48;14.20;95.80
22192;DHT22;11261;52.456;10.850;2023-05-17T07:46:18;14.00;95.10
22192;DHT22;11261;52.456;10.850;2023-05-17T07:48:49;14.90;94.70
22192;DHT22;11261;52.456;10.850;2023-05-17T07:51:17;15.00;95.20
22192;DHT22;11261;52.456;10.850;2023-05-17T07:53:45;14.10;94.20
22192;DHT22;11261;52.456;10.850;2023-05-17T07:56:14;14.70;93.70
22192;DHT22;11261;52.456;10.850;2023-05-17T07:58:42;14.50;93.90
22192;DHT22;11261;52.456;10.850;2023-05-17T08:01:10;14.30;94.20
22192;DHT22;11261;52.456;10.850;2023-05-17T08:03:40;14.40;92.80
22192;DHT22;11261;52.456;10.850;2023-05-17T08:06:14;14.10;93.50
22192;DHT22;11261;52.456;10.850;2023-05-17T08:08:43;14.60;91.90
22192;DHT22;11261;52.456;10.850;2023-05-17T08:11:12;15.10;92.20
22192;DHT22;11261;52.456;10.850;2023-05-17T08:13:41;14.90;91.60
22192;DHT22;11261;52.456;10.850;2023-05-17T08:16:10;14.30;92.10
22192;DHT22;11261;52.456;10.850;2023-05-17T08:18:42;14.70;93.80
22192;DHT22;11261;52.456;10.850;2023-05-17T08:21:11;15.20;91.80
22192;DHT22;11261;52.456;10.850;2023-05-17T08:23:40;14.60;92.50
22192;DHT22;11261;52.456;10.850;2023-05-17T08:26:08;15.00;91.20
22192;DHT22;11261;52.456;10.850;2023-05-17T08:28:38;14.80;91.30
22192;DHT22;11261;52.456;10.850;2023-05-17T08:31:06;14.80;91.10
22192;DHT22;11261;52.456;10.850;2023-05-17T08:33:34;15.60;92.60
22192;DHT22;11261;52.456;10.850;2023-05-17T08:36:05;15.80;91.60
22192;DHT22;11261;52.456;10.850;2023-05-17T08:38:34;16.20;90.00
22192;DHT22;11261;52.456;10.850;2023-05-17T08:41:03;16.50;90.50
22192;DHT22;11261;52.456;10.850;2023-05-17T08:43:31;17.00;86.30
22192;DHT22;11261;52.456;10.850;2023-05-17T08:46:00;17.60;89.60
22192;DHT22;11261;52.456;10.850;2023-05-17T08:48:30;17.20;89.60
22192;DHT22;11261;52.456;10.850;2023-05-17T08:50:58;16.40;87.60
22192;DHT22;11261;52.456;10.850;2023-05-17T08:53:28;16.60;90.00
22192;DHT22;11261;52.456;10.850;2023-05-17T08:55:58;16.50;85.90
22192;DHT22;11261;52.456;10.850;2023-05-17T08:58:32;16.50;89.80
22192;DHT22;11261;52.456;10.850;2023-05-17T09:01:21;16.00;88.60
22192;DHT22;11261;52.456;10.850;2023-05-17T09:03:52;15.90;90.50
22192;DHT22;11261;52.456;10.850;2023-05-17T09:06:22;16.00;90.70
22192;DHT22;11261;52.456;10.850;2023-05-17T09:08:53;16.60;89.20
22192;DHT22;11261;52.456;10.850;2023-05-17T09:11:26;17.40;84.60
22192;DHT22;11261;52.456;10.850;2023-05-17T09:13:57;17.20;84.30
22192;DHT22;11261;52.456;10.850;2023-05-17T09:16:27;17.40;86.80
22192;DHT22;11261;52.456;10.850;2023-05-17T09:18:56;17.50;79.10
22192;DHT22;11261;52.456;10.850;2023-05-17T09:21:27;17.50;82.70
22192;DHT22;11261;52.456;10.850;2023-05-17T09:23:58;17.30;83.90
22192;DHT22;11261;52.456;10.850;2023-05-17T09:26:40;17.00;83.70
22192;DHT22;11261;52.456;10.850;2023-05-17T09:29:10;17.40;83.70
22192;DHT22;11261;52.456;10.850;2023-05-17T09:31:39;17.50;81.20
22192;DHT22;11261;52.456;10.850;2023-05-17T09:34:08;17.60;81.70
22192;DHT22;11261;52.456;10.850;2023-05-17T09:36:37;18.00;83.30
22192;DHT22;11261;52.456;10.850;2023-05-17T09:39:10;18.00;75.80
22192;DHT22;11261;52.456;10.850;2023-05-17T09:41:41;18.90;80.40
22192;DHT22;11261;52.456;10.850;2023-05-17T09:44:12;18.90;81.40
22192;DHT22;11261;52.456;10.850;2023-05-17T09:46:43;18.20;81.40
22192;DHT22;11261;52.456;10.850;2023-05-17T09:49:12;17.60;79.60
22192;DHT22;11261;52.456;10.850;2023-05-17T09:51:42;17.70;76.60
22192;DHT22;11261;52.456;10.850;2023-05-17T09:54:12;17.80;77.70
22192;DHT22;11261;52.456;10.850;2023-05-17T09:56:40;18.50;78.40
22192;DHT22;11261;52.456;10.850;2023-05-17T09:59:13;18.30;75.30
22192;DHT22;11261;52.456;10.850;2023-05-17T10:01:43;18.20;76.10
22192;DHT22;11261;52.456;10.850;2023-05-17T10:04:12;18.10;76.50
22192;DHT22;11261;52.456;10.850;2023-05-17T10:06:46;18.70;76.00
22192;DHT22;11261;52.456;10.850;2023-05-17T10:09:21;17.90;79.60
22192;DHT22;11261;52.456;10.850;2023-05-17T10:11:51;17.90;81.80
22192;DHT22;11261;52.456;10.850;2023-05-17T10:14:22;17.50;77.00
22192;DHT22;11261;52.456;10.850;2023-05-17T10:16:53;17.90;81.30
22192;DHT22;11261;52.456;10.850;2023-05-17T10:19:24;18.10;77.50
22192;DHT22;11261;52.456;10.850;2023-05-17T10:21:54;18.40;76.00
22192;DHT22;11261;52.456;10.850;2023-05-17T10:24:46;18.90;77.90
22192;DHT22;11261;52.456;10.850;2023-05-17T10:27:15;18.90;78.90
22192;DHT22;11261;52.456;10.850;2023-05-17T10:29:44;18.70;75.20
22192;DHT22;11261;52.456;10.850;2023-05-17T10:32:18;19.70;76.20
22192;DHT22;11261;52.456;10.850;2023-05-17T10:34:49;19.50;75.90
22192;DHT22;11261;52.456;10.850;2023-05-17T10:37:32;19.50;71.20
22192;DHT22;11261;52.456;10.850;2023-05-17T10:40:03;19.40;72.30
22192;DHT22;11261;52.456;10.850;2023-05-17T10:42:32;19.70;69.50
22192;DHT22;11261;52.456;10.850;2023-05-17T10:45:00;19.60;74.00
22192;DHT22;11261;52.456;10.850;2023-05-17T10:47:32;19.50;73.30
22192;DHT22;11261;52.456;10.850;2023-05-17T10:50:01;19.30;69.20
22192;DHT22;11261;52.456;10.850;2023-05-17T10:52:29;19.40;71.30
22192;DHT22;11261;52.456;10.850;2023-05-17T10:54:58;19.60;69.20
22192;DHT22;11261;52.456;10.850;2023-05-17T10:57:34;19.60;71.50
22192;DHT22;11261;52.456;10.850;2023-05-17T11:00:19;20.10;73.40
22192;DHT22;11261;52.456;10.850;2023-05-17T11:02:48;19.90;70.40
22192;DHT22;11261;52.456;10.850;2023-05-17T11:05:22;20.10;71.80
22192;DHT22;11261;52.456;10.850;2023-05-17T11:07:51;19.70;68.40
22192;DHT22;11261;52.456;10.850;2023-05-17T11:10:20;19.90;68.30
22192;DHT22;11261;52.456;10.850;2023-05-17T11:12:49;20.00;73.40
22192;DHT22;11261;52.456;10.850;2023-05-17T11:15:23;20.40;71.30
22192;DHT22;11261;52.456;10.850;2023-05-17T11:17:52;20.50;70.40
22192;DHT22;11261;52.456;10.850;2023-05-17T11:20:34;21.00;68.10
22192;DHT22;11261;52.456;10.850;2023-05-17T11:23:05;20.70;69.70
22192;DHT22;11261;52.456;10.850;2023-05-17T11:25:35;20.30;67.20
22192;DHT22;11261;52.456;10.850;2023-05-17T11:28:16;20.20;66.60
22192;DHT22;11261;52.456;10.850;2023-05-17T11:30:45;20.50;69.10
22192;DHT22;11261;52.456;10.850;2023-05-17T11:33:17;21.60;69.80
22192;DHT22;11261;52.456;10.850;2023-05-17T11:36:04;21.30;67.10
22192;DHT22;11261;52.456;10.850;2023-05-17T11:38:33;21.20;65.70
22192;DHT22;11261;52.456;10.850;2023-05-17T11:41:16;21.00;66.20
22192;DHT22;11261;52.456;10.850;2023-05-17T11:43:49;20.90;65.00
22192;DHT22;11261;52.456;10.850;2023-05-17T11:46:19;21.00;65.40
22192;DHT22;11261;52.456;10.850;2023-05-17T11:48:49;20.70;66.70
22192;DHT22;11261;52.456;10.850;2023-05-17T11:51:18;20.70;68.20
22192;DHT22;11261;52.456;10.850;2023-05-17T11:53:53;20.90;69.30
22192;DHT22;11261;52.456;10.850;2023-05-17T11:56:22;21.20;65.90
22192;DHT22;11261;52.456;10.850;2023-05-17T11:59:09;20.90;67.00
22192;DHT22;11261;52.456;10.850;2023-05-17T12:01:42;20.60;66.50
22192;DHT22;11261;52.456;10.850;2023-05-17T12:04:11;20.30;67.60
22192;DHT22;11261;52.456;10.850;2023-05-17T12:06:40;20.90;70.00
22192;DHT22;11261;52.456;10.850;2023-05-17T12:09:08;20.20;67.30
22192;DHT22;11261;52.456;10.850;2023-05-17T12:11:40;20.70;67.20
22192;DHT22;11261;52.456;10.850;2023-05-17T12:14:14;20.90;63.80
22192;DHT22;11261;52.456;10.850;2023-05-17T12:16:44;20.70;66.30
22192;DHT22;11261;52.456;10.850;2023-05-17T12:19:17;21.00;65.90
22192;DHT22;11261;52.456;10.850;2023-05-17T12:21:47;21.10;64.80
22192;DHT22;11261;52.456;10.850;2023-05-17T12:24:15;20.20;64.90
22192;DHT22;11261;52.456;10.850;2023-05-17T12:26:44;20.30;61.00
22192;DHT22;11261;52.456;10.850;2023-05-17T12:29:18;20.70;61.60
22192;DHT22;11261;52.456;10.850;2023-05-17T12:31:49;21.10;64.60
22192;DHT22;11261;52.456;10.850;2023-05-17T12:34:18;20.50;65.20
22192;DHT22;11261;52.456;10.850;2023-05-17T12:36:48;20.70;64.80
22192;DHT22;11261;52.456;10.850;2023-05-17T12:39:17;20.90;64.80
22192;DHT22;11261;52.456;10.850;2023-05-17T12:41:50;21.20;65.40
22192;DHT22;11261;52.456;10.850;2023-05-17T12:44:20;20.80;64.40
22192;DHT22;11261;52.456;10.850;2023-05-17T12:46:48;21.20;63.80
22192;DHT22;11261;52.456;10.850;2023-05-17T12:49:20;21.10;62.80
22192;DHT22;11261;52.456;10.850;2023-05-17T12:51:49;21.20;64.20
22192;DHT22;11261;52.456;10.850;2023-05-17T12:54:25;20.90;61.90
22192;DHT22;11261;52.456;10.850;2023-05-17T12:56:54;20.90;63.10
22192;DHT22;11261;52.456;10.850;2023-05-17T12:59:24;21.00;66.80
22192;DHT22;11261;52.456;10.850;2023-05-17T13:01:56;21.00;66.80
22192;DHT22;11261;52.456;10.850;2023-05-17T13:04:29;21.30;66.60
22192;DHT22;11261;52.456;10.850;2023-05-17T13:07:00;21.00;63.10
22192;DHT22;11261;52.456;10.850;2023-05-17T13:09:29;20.70;66.30
22192;DHT22;11261;52.456;10.850;2023-05-17T13:11:59;20.70;66.20
22192;DHT22;11261;52.456;10.850;2023-05-17T13:14:40;21.10;65.00
22192;DHT22;11261;52.456;10.850;2023-05-17T13:17:16;20.80;64.30
22192;DHT22;11261;52.456;10.850;2023-05-17T13:19:45;20.90;64.70
22192;DHT22;11261;52.456;10.850;2023-05-17T13:22:13;21.00;67.40
22192;DHT22;11261;52.456;10.850;2023-05-17T13:24:43;21.40;66.70
22192;DHT22;11261;52.456;10.850;2023-05-17T13:27:11;21.80;66.70
22192;DHT22;11261;52.456;10.850;2023-05-17T13:29:42;21.00;62.90
22192;DHT22;11261;52.456;10.850;2023-05-17T13:32:11;21.00;65.20
22192;DHT22;11261;52.456;10.850;2023-05-17T13:34:40;21.40;64.90
22192;DHT22;11261;52.456;10.850;2023-05-17T13:37:08;20.60;62.00
22192;DHT22;11261;52.456;10.850;2023-05-17T13:39:38;20.50;61.20
22192;DHT22;11261;52.456;10.850;2023-05-17T13:42:07;20.60;65.40
22192;DHT22;11261;52.456;10.850;2023-05-17T13:44:37;21.20;65.20
22192;DHT22;11261;52.456;10.850;2023-05-17T13:47:09;20.70;65.50
22192;DHT22;11261;52.456;10.850;2023-05-17T13:49:38;20.90;65.70
22192;DHT22;11261;52.456;10.850;2023-05-17T13:52:06;20.80;65.90
22192;DHT22;11261;52.456;10.850;2023-05-17T13:54:37;20.30;66.10
22192;DHT22;11261;52.456;10.850;2023-05-17T13:57:06;19.90;64.70
22192;DHT22;11261;52.456;10.850;2023-05-17T13:59:34;20.40;65.30
22192;DHT22;11261;52.456;10.850;2023-05-17T14:02:02;20.70;65.40
22192;DHT22;11261;52.456;10.850;2023-05-17T14:04:32;20.80;62.40
22192;DHT22;11261;52.456;10.850;2023-05-17T14:07:01;20.80;63.00
22192;DHT22;11261;52.456;10.850;2023-05-17T14:09:30;20.90;63.90
22192;DHT22;11261;52.456;10.850;2023-05-17T14:12:00;20.80;64.60
22192;DHT22;11261;52.456;10.850;2023-05-17T14:14:29;21.00;63.30
22192;DHT22;11261;52.456;10.850;2023-05-17T14:16:57;20.50;62.30
22192;DHT22;11261;52.456;10.850;2023-05-17T14:19:27;20.30;62.40
22192;DHT22;11261;52.456;10.850;2023-05-17T14:21:57;20.20;62.10
22192;DHT22;11261;52.456;10.850;2023-05-17T14:24:25;19.70;61.40
22192;DHT22;11261;52.456;10.850;2023-05-17T14:26:53;20.20;60.80
22192;DHT22;11261;52.456;10.850;2023-05-17T14:29:23;20.10;60.70
22192;DHT22;11261;52.456;10.850;2023-05-17T14:31:51;19.80;60.70
22192;DHT22;11261;52.456;10.850;2023-05-17T14:34:20;19.60;63.40
22192;DHT22;11261;52.456;10.850;2023-05-17T14:36:48;20.30;62.90
22192;DHT22;11261;52.456;10.850;2023-05-17T14:39:18;20.00;63.10
22192;DHT22;11261;52.456;10.850;2023-05-17T14:41:46;20.00;63.40
22192;DHT22;11261;52.456;10.850;2023-05-17T14:44:14;19.70;64.00
22192;DHT22;11261;52.456;10.850;2023-05-17T14:46:43;19.60;64.20
22192;DHT22;11261;52.456;10.850;2023-05-17T14:49:11;19.90;64.00
22192;DHT22;11261;52.456;10.850;2023-05-17T14:51:39;19.80;63.20
22192;DHT22;11261;52.456;10.850;2023-05-17T14:54:08;19.60;65.90
22192;DHT22;11261;52.456;10.850;2023-05-17T14:56:40;19.50;64.90
22192;DHT22;11261;52.456;10.850;2023-05-17T14:59:09;19.60;65.10
22192;DHT22;11261;52.456;10.850;2023-05-17T15:01:37;19.60;62.80
22192;DHT22;11261;52.456;10.850;2023-05-17T15:04:05;19.80;62.40
22192;DHT22;11261;52.456;10.850;2023-05-17T15:06:34;19.10;63.80
22192;DHT22;11261;52.456;10.850;2023-05-17T15:09:02;19.20;64.00
22192;DHT22;11261;52.456;10.850;2023-05-17T15:11:30;19.30;64.70
22192;DHT22;11261;52.456;10.850;2023-05-17T15:14:00;19.50;63.20
22192;DHT22;11261;52.456;10.850;2023-05-17T15:16:29;19.70;64.60
22192;DHT22;11261;52.456;10.850;2023-05-17T15:18:58;19.60;64.20
22192;DHT22;11261;52.456;10.850;2023-05-17T15:21:27;19.40;64.00
22192;DHT22;11261;52.456;10.850;2023-05-17T15:23:55;19.10;65.10
22192;DHT22;11261;52.456;10.850;2023-05-17T15:26:23;19.20;64.00
22192;DHT22;11261;52.456;10.850;2023-05-17T15:28:52;19.10;66.00
22192;DHT22;11261;52.456;10.850;2023-05-17T15:31:22;19.20;65.70
22192;DHT22;11261;52.456;10.850;2023-05-17T15:33:50;19.20;66.10
22192;DHT22;11261;52.456;10.850;2023-05-17T15:36:19;19.10;65.70